createdAt,value
2022-08-01T00:01:17.384Z,99.90
2022-08-01T00:03:45.291Z,99.90
2022-08-01T00:06:13.160Z,99.90
2022-08-01T00:08:40.909Z,99.90
2022-08-01T00:11:10.087Z,99.90
2022-08-01T00:13:38.008Z,99.90
2022-08-01T00:16:07.479Z,99.90
2022-08-01T00:18:36.394Z,99.90
2022-08-01T00:21:04.641Z,99.90
2022-08-01T00:23:32.537Z,99.90
2022-08-01T00:26:00.476Z,99.90
2022-08-01T00:28:28.387Z,99.90
2022-08-01T00:30:56.326Z,99.90
2022-08-01T00:33:25.568Z,99.90
2022-08-01T00:35:53.429Z,99.90
2022-08-01T00:38:21.358Z,99.90
2022-08-01T00:40:49.260Z,99.90
2022-08-01T00:43:17.411Z,99.90
2022-08-01T00:45:45.339Z,99.90
2022-08-01T00:48:13.191Z,99.90
2022-08-01T00:50:42.755Z,99.90
2022-08-01T00:53:11.022Z,99.90
2022-08-01T00:55:47.392Z,99.90
2022-08-01T00:58:15.164Z,99.90
2022-08-01T01:00:53.478Z,99.90
2022-08-01T01:03:26.389Z,99.90
2022-08-01T01:06:15.047Z,99.90
2022-08-01T01:08:48.484Z,99.90
2022-08-01T01:11:22.020Z,99.90
2022-08-01T01:13:57.453Z,99.90
2022-08-01T01:16:26.769Z,99.90
2022-08-01T01:18:57.612Z,99.90
2022-08-01T01:21:39.876Z,99.90
2022-08-01T01:24:19.080Z,99.90
2022-08-01T01:26:54.365Z,99.90
2022-08-01T01:29:30.152Z,99.90
2022-08-01T01:32:22.096Z,99.90
2022-08-01T01:35:00.674Z,99.90
2022-08-01T01:37:31.875Z,99.90
2022-08-01T01:40:00.355Z,99.90
2022-08-01T01:42:29.632Z,99.90
2022-08-01T01:45:00.368Z,99.90
2022-08-01T01:47:30.427Z,99.90
2022-08-01T01:50:01.257Z,99.90
2022-08-01T01:52:30.756Z,99.90
2022-08-01T01:55:00.578Z,99.90
2022-08-01T01:57:30.801Z,99.90
2022-08-01T02:00:01.459Z,99.90
2022-08-01T02:02:29.934Z,99.90
2022-08-01T02:04:59.470Z,99.90
2022-08-01T02:07:28.298Z,99.90
2022-08-01T02:09:57.681Z,99.90
2022-08-01T02:12:26.713Z,99.90
2022-08-01T02:14:55.797Z,99.90
2022-08-01T02:17:26.560Z,99.90
2022-08-01T02:19:55.240Z,99.90
2022-08-01T02:22:29.272Z,99.90
2022-08-01T02:25:04.505Z,99.90
2022-08-01T02:27:36.187Z,99.90
2022-08-01T02:30:07.257Z,99.90
2022-08-01T02:32:40.727Z,99.90
2022-08-01T02:35:11.905Z,99.90
2022-08-01T02:37:44.360Z,99.90
2022-08-01T02:40:16.026Z,99.90
2022-08-01T02:42:47.330Z,99.90
2022-08-01T02:45:15.615Z,99.90
2022-08-01T02:47:47.537Z,99.90
2022-08-01T02:50:17.589Z,99.90
2022-08-01T02:52:47.919Z,99.90
2022-08-01T02:55:16.835Z,99.90
2022-08-01T02:57:52.539Z,99.90
2022-08-01T03:00:26.933Z,99.90
2022-08-01T03:02:57.914Z,99.90
2022-08-01T03:05:27.022Z,99.90
2022-08-01T03:08:02.604Z,99.90
2022-08-01T03:10:33.375Z,99.90
2022-08-01T03:13:03.233Z,99.90
2022-08-01T03:15:32.981Z,99.90
2022-08-01T03:18:04.376Z,99.90
2022-08-01T03:20:33.818Z,99.90
2022-08-01T03:23:05.312Z,99.90
2022-08-01T03:25:34.921Z,99.90
2022-08-01T03:28:05.856Z,99.90
2022-08-01T03:30:36.691Z,99.90
2022-08-01T03:33:06.001Z,99.90
2022-08-01T03:35:38.977Z,99.90
2022-08-01T03:38:16.921Z,99.90
2022-08-01T03:40:51.523Z,99.90
2022-08-01T03:43:24.453Z,99.90
2022-08-01T03:45:55.164Z,99.90
2022-08-01T03:48:31.879Z,99.90
2022-08-01T03:51:01.318Z,99.90
2022-08-01T03:53:33.934Z,99.90
2022-08-01T03:56:04.152Z,99.90
2022-08-01T03:58:32.956Z,99.90
2022-08-01T04:01:01.474Z,99.90
2022-08-01T04:03:31.258Z,99.90
2022-08-01T04:05:59.134Z,99.90
2022-08-01T04:08:36.846Z,99.90
2022-08-01T04:11:04.936Z,99.90
2022-08-01T04:13:36.727Z,99.90
2022-08-01T04:16:06.128Z,99.90
2022-08-01T04:18:35.322Z,99.90
2022-08-01T04:21:03.222Z,99.90
2022-08-01T04:23:33.469Z,99.90
2022-08-01T04:26:04.962Z,99.90
2022-08-01T04:28:35.917Z,99.90
2022-08-01T04:31:06.278Z,99.90
2022-08-01T04:33:37.431Z,99.90
2022-08-01T04:36:08.204Z,99.90
2022-08-01T04:38:38.468Z,99.90
2022-08-01T04:41:09.907Z,99.90
2022-08-01T04:43:38.593Z,99.90
2022-08-01T04:46:08.781Z,99.90
2022-08-01T04:48:40.433Z,99.90
2022-08-01T04:51:16.048Z,99.90
2022-08-01T04:53:44.576Z,99.90
2022-08-01T04:56:13.945Z,99.90
2022-08-01T04:58:42.107Z,99.90
2022-08-01T05:01:10.450Z,99.90
2022-08-01T05:03:39.827Z,99.90
2022-08-01T05:06:09.092Z,99.90
2022-08-01T05:08:37.846Z,99.90
2022-08-01T05:11:06.129Z,99.90
2022-08-01T05:13:33.954Z,99.90
2022-08-01T05:16:04.436Z,99.90
2022-08-01T05:18:32.316Z,99.90
2022-08-01T05:21:02.793Z,99.90
2022-08-01T05:23:34.169Z,99.90
2022-08-01T05:26:09.991Z,99.90
2022-08-01T05:28:38.051Z,99.90
2022-08-01T05:31:05.998Z,99.90
2022-08-01T05:33:34.082Z,99.90
2022-08-01T05:36:03.277Z,99.90
2022-08-01T05:38:31.091Z,99.90
2022-08-01T05:40:58.971Z,99.90
2022-08-01T05:43:28.992Z,99.90
2022-08-01T05:45:57.445Z,99.90
2022-08-01T05:48:25.217Z,99.90
2022-08-01T05:50:58.239Z,99.90
2022-08-01T05:53:27.878Z,99.90
2022-08-01T05:55:55.953Z,99.90
2022-08-01T05:58:24.145Z,99.90
2022-08-01T06:00:52.058Z,99.90
2022-08-01T06:03:20.453Z,99.90
2022-08-01T06:05:48.456Z,99.90
2022-08-01T06:08:16.495Z,99.90
2022-08-01T06:10:45.634Z,99.90
2022-08-01T06:13:13.473Z,99.90
2022-08-01T06:15:41.530Z,99.90
2022-08-01T06:18:09.514Z,99.90
2022-08-01T06:20:37.536Z,99.90
2022-08-01T06:23:22.530Z,99.90
2022-08-01T06:25:56.005Z,99.90
2022-08-01T06:28:23.908Z,99.90
2022-08-01T06:30:51.777Z,99.90
2022-08-01T06:33:19.650Z,99.90
2022-08-01T06:35:47.526Z,99.90
2022-08-01T06:38:16.138Z,99.90
2022-08-01T06:40:44.160Z,99.90
2022-08-01T06:43:13.293Z,99.90
2022-08-01T06:45:41.281Z,99.90
2022-08-01T06:48:09.193Z,99.90
2022-08-01T06:50:37.773Z,99.90
2022-08-01T06:53:06.021Z,99.60
2022-08-01T06:55:34.045Z,99.20
2022-08-01T06:58:01.818Z,98.30
2022-08-01T07:00:31.675Z,97.30
2022-08-01T07:03:01.431Z,96.20
2022-08-01T07:05:31.957Z,94.90
2022-08-01T07:08:00.160Z,94.80
2022-08-01T07:10:27.974Z,95.20
2022-08-01T07:12:56.020Z,97.00
2022-08-01T07:15:27.325Z,97.10
2022-08-01T07:17:57.902Z,94.90
2022-08-01T07:20:25.763Z,93.30
2022-08-01T07:22:54.150Z,92.80
2022-08-01T07:25:24.732Z,91.80
2022-08-01T07:27:52.558Z,91.10
2022-08-01T07:30:20.496Z,90.10
2022-08-01T07:32:48.348Z,89.50
2022-08-01T07:35:17.662Z,89.10
2022-08-01T07:37:48.908Z,88.90
2022-08-01T07:40:18.428Z,88.70
2022-08-01T07:42:46.367Z,88.10
2022-08-01T07:45:15.075Z,87.80
2022-08-01T07:47:43.200Z,87.60
2022-08-01T07:50:11.609Z,87.40
2022-08-01T07:52:41.350Z,86.70
2022-08-01T07:55:10.885Z,82.40
2022-08-01T07:57:38.927Z,78.90
2022-08-01T08:00:09.728Z,76.50
2022-08-01T08:02:37.618Z,74.30
2022-08-01T08:05:07.460Z,73.50
2022-08-01T08:07:35.522Z,72.80
2022-08-01T08:10:05.982Z,71.90
2022-08-01T08:12:34.065Z,70.90
2022-08-01T08:15:02.137Z,69.70
2022-08-01T08:17:35.577Z,67.90
2022-08-01T08:20:06.466Z,66.80
2022-08-01T08:22:37.287Z,64.90
2022-08-01T08:25:08.441Z,62.50
2022-08-01T08:27:37.716Z,61.70
2022-08-01T08:30:08.447Z,60.30
2022-08-01T08:32:36.786Z,58.80
2022-08-01T08:35:05.780Z,57.70
2022-08-01T08:37:38.946Z,59.10
2022-08-01T08:40:13.276Z,58.10
2022-08-01T08:42:42.971Z,56.00
2022-08-01T08:47:41.434Z,49.00
2022-08-01T08:50:10.296Z,46.20
2022-08-01T08:52:41.001Z,43.50
2022-08-01T08:55:10.738Z,40.90
2022-08-01T08:57:42.486Z,40.00
2022-08-01T09:00:12.791Z,38.30
2022-08-01T09:02:43.763Z,37.40
2022-08-01T09:05:17.414Z,37.80
2022-08-01T09:07:47.163Z,38.50
2022-08-01T09:10:15.073Z,38.30
2022-08-01T09:13:04.152Z,37.20
2022-08-01T09:15:44.879Z,36.10
2022-08-01T09:18:30.237Z,35.90
2022-08-01T09:21:10.959Z,35.80
2022-08-01T09:23:53.495Z,35.90
2022-08-01T09:26:29.937Z,36.00
2022-08-01T09:29:01.171Z,35.20
2022-08-01T09:31:37.933Z,35.30
2022-08-01T09:34:06.847Z,34.20
2022-08-01T09:36:49.194Z,32.60
2022-08-01T09:39:17.380Z,31.90
2022-08-01T09:41:45.275Z,31.40
2022-08-01T09:44:14.839Z,30.30
2022-08-01T09:46:55.166Z,29.50
2022-08-01T09:49:51.702Z,29.60
2022-08-01T09:52:21.524Z,29.20
2022-08-01T09:54:56.376Z,29.50
2022-08-01T09:57:24.539Z,30.00
2022-08-01T09:59:58.704Z,30.60
2022-08-01T10:02:33.013Z,31.40
2022-08-01T10:05:08.368Z,32.80
2022-08-01T10:07:42.748Z,33.50
2022-08-01T10:10:14.621Z,34.20
2022-08-01T10:12:45.909Z,35.00
2022-08-01T10:15:18.512Z,35.00
2022-08-01T10:17:57.088Z,35.40
2022-08-01T10:20:30.283Z,35.60
2022-08-01T10:23:06.339Z,35.10
2022-08-01T10:25:42.962Z,34.80
2022-08-01T10:28:23.865Z,34.80
2022-08-01T10:30:54.770Z,35.30
2022-08-01T10:33:50.900Z,36.00
2022-08-01T10:36:13.022Z,36.60
2022-08-01T10:38:42.689Z,36.20
2022-08-01T10:41:15.913Z,35.90
2022-08-01T10:43:45.495Z,35.60
2022-08-01T10:46:15.080Z,35.90
2022-08-01T10:48:49.018Z,35.60
2022-08-01T10:51:22.353Z,36.20
2022-08-01T10:54:11.514Z,37.20
2022-08-01T10:56:45.949Z,38.30
2022-08-01T10:59:50.450Z,39.30
2022-08-01T11:02:12.129Z,40.10
2022-08-01T11:04:52.803Z,40.50
2022-08-01T11:07:26.700Z,40.70
2022-08-01T11:10:14.878Z,40.20
2022-08-01T11:12:45.694Z,40.70
2022-08-01T11:15:30.068Z,40.50
2022-08-01T11:18:02.789Z,41.00
2022-08-01T11:20:41.948Z,41.10
2022-08-01T11:23:25.387Z,40.70
2022-08-01T11:26:17.596Z,40.10
2022-08-01T11:29:10.960Z,39.60
2022-08-01T11:31:36.998Z,40.20
2022-08-01T11:34:08.025Z,40.20
2022-08-01T11:36:58.382Z,40.50
2022-08-01T11:39:24.443Z,40.60
2022-08-01T11:41:53.543Z,40.80
2022-08-01T11:44:26.416Z,40.90
2022-08-01T11:47:01.066Z,41.10
2022-08-01T11:49:51.397Z,41.20
2022-08-01T11:52:20.986Z,41.50
2022-08-01T11:54:51.359Z,40.90
2022-08-01T11:57:23.076Z,40.60
2022-08-01T12:00:03.449Z,40.60
2022-08-01T12:02:35.071Z,40.60
2022-08-01T12:05:08.471Z,40.20
2022-08-01T12:07:41.164Z,40.00
2022-08-01T12:10:11.857Z,40.10
2022-08-01T12:12:45.050Z,40.20
2022-08-01T12:15:13.519Z,40.30
2022-08-01T12:17:46.927Z,39.80
2022-08-01T12:20:30.936Z,39.60
2022-08-01T12:23:04.010Z,39.50
2022-08-01T12:25:32.520Z,39.20
2022-08-01T12:28:02.900Z,39.00
2022-08-01T12:30:32.690Z,39.10
2022-08-01T12:33:00.714Z,38.80
2022-08-01T12:35:32.019Z,39.30
2022-08-01T12:38:02.107Z,39.70
2022-08-01T12:40:31.864Z,40.20
2022-08-01T12:43:03.071Z,40.70
2022-08-01T12:45:34.832Z,40.80
2022-08-01T12:48:03.792Z,41.20
2022-08-01T12:50:33.997Z,41.10
2022-08-01T12:53:04.070Z,41.30
2022-08-01T12:55:35.060Z,41.70
2022-08-01T12:58:10.364Z,41.40
2022-08-01T13:00:45.151Z,41.50
2022-08-01T13:03:17.488Z,41.80
2022-08-01T13:05:50.162Z,42.20
2022-08-01T13:08:19.899Z,42.40
2022-08-01T13:10:48.857Z,42.30
2022-08-01T13:13:28.632Z,42.40
2022-08-01T13:16:06.872Z,41.60
2022-08-01T13:18:37.793Z,41.30
2022-08-01T13:21:16.201Z,41.00
2022-08-01T13:24:04.015Z,41.20
2022-08-01T13:26:46.812Z,41.20
2022-08-01T13:29:16.699Z,41.10
2022-08-01T13:31:45.265Z,41.00
2022-08-01T13:34:13.695Z,40.80
2022-08-01T13:36:49.008Z,41.10
2022-08-01T13:39:40.233Z,41.30
2022-08-01T13:42:08.440Z,41.30
2022-08-01T13:44:36.513Z,41.80
2022-08-01T13:47:15.010Z,42.30
2022-08-01T13:49:44.034Z,42.80
2022-08-01T13:52:13.280Z,42.80
2022-08-01T13:54:41.192Z,42.70
2022-08-01T13:57:09.041Z,42.70
2022-08-01T13:59:37.040Z,43.10
2022-08-01T14:02:05.146Z,43.40
2022-08-01T14:04:33.350Z,43.50
2022-08-01T14:07:05.528Z,43.10
2022-08-01T14:10:04.735Z,42.90
2022-08-01T14:12:26.729Z,42.80
2022-08-01T14:14:54.670Z,42.30
2022-08-01T14:17:22.576Z,41.90
2022-08-01T14:19:50.818Z,41.70
2022-08-01T14:22:18.936Z,41.80
2022-08-01T14:24:48.607Z,42.00
2022-08-01T14:27:16.495Z,42.20
2022-08-01T14:30:00.287Z,42.50
2022-08-01T14:32:34.073Z,43.20
2022-08-01T14:35:02.217Z,43.90
2022-08-01T14:37:34.722Z,44.20
2022-08-01T14:40:10.235Z,44.30
2022-08-01T14:42:39.167Z,44.20
2022-08-01T14:45:09.702Z,44.40
2022-08-01T14:47:37.982Z,44.70
2022-08-01T14:50:08.174Z,44.90
2022-08-01T14:52:36.745Z,45.00
2022-08-01T14:55:07.013Z,45.20
2022-08-01T14:57:34.958Z,45.10
2022-08-01T15:00:03.338Z,45.40
2022-08-01T15:02:31.466Z,45.20
2022-08-01T15:04:59.344Z,44.70
2022-08-01T15:07:27.227Z,45.50
2022-08-01T15:09:55.090Z,46.20
2022-08-01T15:12:24.301Z,46.80
2022-08-01T15:14:52.295Z,47.20
2022-08-01T15:17:21.592Z,47.10
2022-08-01T15:19:53.420Z,47.00
2022-08-01T15:22:22.159Z,47.20
2022-08-01T15:24:56.847Z,47.50
2022-08-01T15:27:26.761Z,48.10
2022-08-01T15:29:55.363Z,48.10
2022-08-01T15:32:23.449Z,48.20
2022-08-01T15:34:51.399Z,48.30
2022-08-01T15:37:19.417Z,48.70
2022-08-01T15:39:47.341Z,49.00
2022-08-01T15:42:20.157Z,49.70
2022-08-01T15:44:56.337Z,50.00
2022-08-01T15:47:25.064Z,50.50
2022-08-01T15:49:53.273Z,51.20
2022-08-01T15:52:23.018Z,50.90
2022-08-01T15:54:51.205Z,51.10
2022-08-01T15:57:19.280Z,51.60
2022-08-01T15:59:47.221Z,51.20
2022-08-01T16:02:16.595Z,51.80
2022-08-01T16:04:44.632Z,51.60
2022-08-01T16:07:12.871Z,51.10
2022-08-01T16:09:40.852Z,51.20
2022-08-01T16:12:10.083Z,51.60
2022-08-01T16:14:38.229Z,52.00
2022-08-01T16:17:06.219Z,52.00
2022-08-01T16:19:35.423Z,52.30
2022-08-01T16:22:03.317Z,52.40
2022-08-01T16:24:31.335Z,52.80
2022-08-01T16:26:59.409Z,52.90
2022-08-01T16:29:30.541Z,53.30
2022-08-01T16:32:24.562Z,54.00
2022-08-01T16:34:47.856Z,54.20
2022-08-01T16:37:16.351Z,53.90
2022-08-01T16:39:45.494Z,54.20
2022-08-01T16:42:15.540Z,54.30
2022-08-01T16:44:44.851Z,54.50
2022-08-01T16:47:12.812Z,54.80
2022-08-01T16:49:40.753Z,55.30
2022-08-01T16:52:10.297Z,55.40
2022-08-01T16:54:38.285Z,55.50
2022-08-01T16:57:08.461Z,55.60
2022-08-01T16:59:41.057Z,55.40
2022-08-01T17:02:10.275Z,55.60
2022-08-01T17:04:38.458Z,55.80
2022-08-01T17:07:06.513Z,55.50
2022-08-01T17:09:38.693Z,54.70
2022-08-01T17:12:11.756Z,54.50
2022-08-01T17:14:39.753Z,54.40
2022-08-01T17:17:08.439Z,53.80
2022-08-01T17:19:36.521Z,53.80
2022-08-01T17:22:04.689Z,53.80
2022-08-01T17:24:32.737Z,53.80
2022-08-01T17:27:01.917Z,54.00
2022-08-01T17:29:43.832Z,53.70
2022-08-01T17:32:12.989Z,54.30
2022-08-01T17:34:40.910Z,54.60
2022-08-01T17:37:09.404Z,54.80
2022-08-01T17:39:39.425Z,55.20
2022-08-01T17:42:10.667Z,55.20
2022-08-01T17:44:38.511Z,55.20
2022-08-01T17:47:07.055Z,55.40
2022-08-01T17:49:56.205Z,55.50
2022-08-01T17:52:23.591Z,55.80
2022-08-01T17:54:57.491Z,56.00
2022-08-01T17:57:26.936Z,56.00
2022-08-01T17:59:58.481Z,55.70
2022-08-01T18:02:26.708Z,55.30
2022-08-01T18:04:54.915Z,55.00
2022-08-01T18:08:01.808Z,54.80
2022-08-01T18:10:11.634Z,54.50
2022-08-01T18:12:41.607Z,54.50
2022-08-01T18:15:10.212Z,54.70
2022-08-01T18:17:43.521Z,54.80
2022-08-01T18:20:12.407Z,54.90
2022-08-01T18:22:41.498Z,54.80
2022-08-01T18:25:10.351Z,54.90
2022-08-01T18:28:16.405Z,54.90
2022-08-01T18:30:28.094Z,55.00
2022-08-01T18:32:56.026Z,55.20
2022-08-01T18:35:34.478Z,55.50
2022-08-01T18:38:12.484Z,55.70
2022-08-01T18:40:41.505Z,56.30
2022-08-01T18:43:09.256Z,56.50
2022-08-01T18:45:42.522Z,56.80
2022-08-01T18:48:11.044Z,57.00
2022-08-01T18:50:39.400Z,57.10
2022-08-01T18:53:08.276Z,57.20
2022-08-01T18:55:36.123Z,57.60
2022-08-01T18:58:04.486Z,57.90
2022-08-01T19:00:32.507Z,58.30
2022-08-01T19:03:01.692Z,58.70
2022-08-01T19:05:31.190Z,59.00
2022-08-01T19:08:07.215Z,59.30
2022-08-01T19:10:35.761Z,59.60
2022-08-01T19:13:03.779Z,59.90
2022-08-01T19:15:31.901Z,60.10
2022-08-01T19:18:01.807Z,60.40
2022-08-01T19:20:29.879Z,60.60
2022-08-01T19:23:20.483Z,60.90
2022-08-01T19:25:55.251Z,61.20
2022-08-01T19:28:25.018Z,62.40
2022-08-01T19:30:55.229Z,62.00
2022-08-01T19:33:31.099Z,62.50
2022-08-01T19:35:59.667Z,62.90
2022-08-01T19:38:28.570Z,63.30
2022-08-01T19:40:57.025Z,63.60
2022-08-01T19:43:26.520Z,64.10
2022-08-01T19:45:56.717Z,64.60
2022-08-01T19:48:24.645Z,65.10
2022-08-01T19:50:55.141Z,65.60
2022-08-01T19:53:25.518Z,66.00
2022-08-01T19:55:54.140Z,66.40
2022-08-01T19:58:27.273Z,66.90
2022-08-01T20:00:56.551Z,67.40
2022-08-01T20:03:24.833Z,67.90
2022-08-01T20:05:54.426Z,68.20
2022-08-01T20:08:22.476Z,68.60
2022-08-01T20:10:50.827Z,69.20
2022-08-01T20:13:19.315Z,69.50
2022-08-01T20:15:48.145Z,69.90
2022-08-01T20:18:15.928Z,70.50
2022-08-01T20:20:45.029Z,70.90
2022-08-01T20:23:18.364Z,71.40
2022-08-01T20:25:50.329Z,72.00
2022-08-01T20:28:21.867Z,72.40
2022-08-01T20:30:54.508Z,72.90
2022-08-01T20:33:22.492Z,73.40
2022-08-01T20:35:53.958Z,74.00
2022-08-01T20:38:25.196Z,74.30
2022-08-01T20:40:58.472Z,75.00
2022-08-01T20:43:27.897Z,75.60
2022-08-01T20:45:56.684Z,76.40
2022-08-01T20:48:27.698Z,76.90
2022-08-01T20:51:13.672Z,77.40
2022-08-01T20:53:44.756Z,78.00
2022-08-01T20:56:17.191Z,78.70
2022-08-01T20:58:59.035Z,79.30
2022-08-01T21:01:30.472Z,80.10
2022-08-01T21:04:16.342Z,80.40
2022-08-01T21:06:50.498Z,81.20
2022-08-01T21:09:24.503Z,81.80
2022-08-01T21:12:02.756Z,82.70
2022-08-01T21:14:44.396Z,84.10
2022-08-01T21:17:18.790Z,85.30
2022-08-01T21:19:49.233Z,86.10
2022-08-01T21:22:26.927Z,86.40
2022-08-01T21:25:02.798Z,87.10
2022-08-01T21:27:33.443Z,87.70
2022-08-01T21:30:04.312Z,88.20
2022-08-01T21:32:33.520Z,88.50
2022-08-01T21:35:02.407Z,89.50
2022-08-01T21:37:31.144Z,90.30
2022-08-01T21:40:09.558Z,90.90
2022-08-01T21:42:39.505Z,91.00
2022-08-01T21:45:09.411Z,91.30
2022-08-01T21:47:41.465Z,91.50
2022-08-01T21:50:10.944Z,91.90
2022-08-01T21:52:44.811Z,92.50
2022-08-01T21:55:22.727Z,92.90
2022-08-01T21:58:17.568Z,93.10
2022-08-01T22:00:52.053Z,93.40
2022-08-01T22:03:25.132Z,93.60
2022-08-01T22:05:54.684Z,93.90
2022-08-01T22:08:30.793Z,94.30
2022-08-01T22:11:03.067Z,94.50
2022-08-01T22:13:30.967Z,94.80
2022-08-01T22:15:59.654Z,95.10
2022-08-01T22:18:28.541Z,95.10
2022-08-01T22:20:56.876Z,95.20
2022-08-01T22:23:25.415Z,95.30
2022-08-01T22:25:54.569Z,95.60
2022-08-01T22:28:43.280Z,95.90
2022-08-01T22:31:11.203Z,96.10
2022-08-01T22:33:40.033Z,96.40
2022-08-01T22:36:08.396Z,96.80
2022-08-01T22:38:36.251Z,97.10
2022-08-01T22:41:06.974Z,97.10
2022-08-01T22:43:44.041Z,97.20
2022-08-01T22:46:26.149Z,97.50
2022-08-01T22:49:00.624Z,97.90
2022-08-01T22:51:39.248Z,98.00
2022-08-01T22:54:09.880Z,98.20
2022-08-01T22:56:40.170Z,98.60
2022-08-01T22:59:15.165Z,98.90
2022-08-01T23:01:47.495Z,99.20
2022-08-01T23:04:27.603Z,99.50
2022-08-01T23:07:05.409Z,99.80
2022-08-01T23:09:52.636Z,99.90
2022-08-01T23:12:24.390Z,99.90
2022-08-01T23:14:54.786Z,99.90
2022-08-01T23:17:27.361Z,99.90
2022-08-01T23:19:59.296Z,99.90
2022-08-01T23:22:30.942Z,99.90
2022-08-01T23:25:04.267Z,99.90
2022-08-01T23:27:56.046Z,99.90
2022-08-01T23:30:27.529Z,99.90
2022-08-01T23:32:55.561Z,99.90
2022-08-01T23:35:24.041Z,99.90
2022-08-01T23:37:52.159Z,99.90
2022-08-01T23:40:21.016Z,99.90
2022-08-01T23:42:54.437Z,99.90
2022-08-01T23:45:24.526Z,99.90
2022-08-01T23:47:52.732Z,99.90
2022-08-01T23:50:21.764Z,99.90
2022-08-01T23:52:51.355Z,99.90
2022-08-01T23:55:23.864Z,99.90
2022-08-01T23:58:06.330Z,99.90
